sensor_id;sensor_type;location;lat;lon;timestamp;pressure;altitude;pressure_sealevel;temperature;humidity
71915;BME280;60387;49.994;14.660;2022-12-29T00:01:16;97463.94;;;8.98;53.96
71915;BME280;60387;49.994;14.660;2022-12-29T00:03:50;97452.53;;;9.01;53.87
71915;BME280;60387;49.994;14.660;2022-12-29T00:06:23;97457.16;;;9.00;53.73
71915;BME280;60387;49.994;14.660;2022-12-29T00:08:57;97454.47;;;9.00;53.61
71915;BME280;60387;49.994;14.660;2022-12-29T00:11:30;97444.03;;;8.94;53.43
71915;BME280;60387;49.994;14.660;2022-12-29T00:14:03;97448.53;;;8.98;53.72
71915;BME280;60387;49.994;14.660;2022-12-29T00:16:38;97445.81;;;8.98;53.71
71915;BME280;60387;49.994;14.660;2022-12-29T00:19:13;97436.72;;;8.94;53.48
71915;BME280;60387;49.994;14.660;2022-12-29T00:21:46;97432.94;;;8.95;53.32
71915;BME280;60387;49.994;14.660;2022-12-29T00:24:21;97428.34;;;8.96;53.96
71915;BME280;60387;49.994;14.660;2022-12-29T00:27:10;97424.22;;;8.98;53.63
71915;BME280;60387;49.994;14.660;2022-12-29T00:29:45;97412.50;;;8.89;53.30
71915;BME280;60387;49.994;14.660;2022-12-29T00:32:18;97418.94;;;8.93;53.63
71915;BME280;60387;49.994;14.660;2022-12-29T00:34:51;97415.94;;;8.95;53.29
71915;BME280;60387;49.994;14.660;2022-12-29T00:37:25;97417.31;;;8.92;53.01
71915;BME280;60387;49.994;14.660;2022-12-29T00:39:58;97428.34;;;8.96;52.95
71915;BME280;60387;49.994;14.660;2022-12-29T00:42:31;97423.22;;;8.94;53.16
71915;BME280;60387;49.994;14.660;2022-12-29T00:45:05;97401.88;;;8.79;52.71
71915;BME280;60387;49.994;14.660;2022-12-29T00:47:38;97426.75;;;8.95;53.18
71915;BME280;60387;49.994;14.660;2022-12-29T00:50:12;97426.91;;;8.98;52.74
71915;BME280;60387;49.994;14.660;2022-12-29T00:52:45;97416.94;;;8.99;52.89
71915;BME280;60387;49.994;14.660;2022-12-29T00:55:18;97411.81;;;8.97;52.71
71915;BME280;60387;49.994;14.660;2022-12-29T00:57:52;97418.81;;;8.98;53.02
71915;BME280;60387;49.994;14.660;2022-12-29T01:00:25;97420.44;;;8.99;52.87
71915;BME280;60387;49.994;14.660;2022-12-29T01:02:58;97426.84;;;9.03;52.17
71915;BME280;60387;49.994;14.660;2022-12-29T01:05:36;97421.34;;;9.08;52.16
71915;BME280;60387;49.994;14.660;2022-12-29T01:08:09;97417.63;;;9.04;52.55
71915;BME280;60387;49.994;14.660;2022-12-29T01:10:42;97424.63;;;9.05;52.38
71915;BME280;60387;49.994;14.660;2022-12-29T01:13:15;97425.75;;;9.04;52.48
71915;BME280;60387;49.994;14.660;2022-12-29T01:15:53;97430.53;;;9.07;52.16
71915;BME280;60387;49.994;14.660;2022-12-29T01:18:26;97423.53;;;9.06;51.70
71915;BME280;60387;49.994;14.660;2022-12-29T01:23:33;97438.28;;;9.14;52.19
71915;BME280;60387;49.994;14.660;2022-12-29T01:26:11;97417.56;;;9.09;51.79
71915;BME280;60387;49.994;14.660;2022-12-29T01:28:44;97424.16;;;9.17;52.46
71915;BME280;60387;49.994;14.660;2022-12-29T01:31:18;97429.25;;;9.18;52.18
71915;BME280;60387;49.994;14.660;2022-12-29T01:33:51;97426.56;;;9.18;51.86
71915;BME280;60387;49.994;14.660;2022-12-29T01:36:24;97426.56;;;9.18;51.43
71915;BME280;60387;49.994;14.660;2022-12-29T01:38:58;97432.97;;;9.22;51.65
71915;BME280;60387;49.994;14.660;2022-12-29T01:41:31;97428.38;;;9.23;51.97
71915;BME280;60387;49.994;14.660;2022-12-29T01:47:28;97426.16;;;9.25;51.58
71915;BME280;60387;49.994;14.660;2022-12-29T01:50:17;97408.34;;;9.24;51.54
71915;BME280;60387;49.994;14.660;2022-12-29T01:53:01;97404.53;;;9.25;51.73
71915;BME280;60387;49.994;14.660;2022-12-29T01:55:40;97407.16;;;9.30;51.06
71915;BME280;60387;49.994;14.660;2022-12-29T01:58:18;97396.94;;;9.27;50.97
71915;BME280;60387;49.994;14.660;2022-12-29T02:00:53;97394.91;;;9.32;50.72
71915;BME280;60387;49.994;14.660;2022-12-29T02:03:27;97394.34;;;9.35;50.29
71915;BME280;60387;49.994;14.660;2022-12-29T02:06:02;97397.75;;;9.41;50.13
71915;BME280;60387;49.994;14.660;2022-12-29T02:08:39;97390.31;;;9.46;50.09
71915;BME280;60387;49.994;14.660;2022-12-29T02:11:15;97378.09;;;9.48;50.35
71915;BME280;60387;49.994;14.660;2022-12-29T02:13:49;97382.31;;;9.54;49.59
71915;BME280;60387;49.994;14.660;2022-12-29T02:28:17;97371.84;;;9.75;48.90
71915;BME280;60387;49.994;14.660;2022-12-29T02:31:06;97363.63;;;9.80;48.87
71915;BME280;60387;49.994;14.660;2022-12-29T02:36:42;97374.84;;;9.87;47.81
71915;BME280;60387;49.994;14.660;2022-12-29T02:39:51;97343.56;;;9.81;48.02
71915;BME280;60387;49.994;14.660;2022-12-29T02:42:24;97364.59;;;9.97;48.68
71915;BME280;60387;49.994;14.660;2022-12-29T02:45:15;97357.75;;;10.00;48.04
71915;BME280;60387;49.994;14.660;2022-12-29T02:50:29;97357.03;;;10.08;47.06
71915;BME280;60387;49.994;14.660;2022-12-29T02:53:09;97359.44;;;10.09;48.49
71915;BME280;60387;49.994;14.660;2022-12-29T02:55:49;97334.28;;;10.09;47.92
71915;BME280;60387;49.994;14.660;2022-12-29T02:58:24;97339.41;;;10.10;47.87
71915;BME280;60387;49.994;14.660;2022-12-29T03:06:38;97344.50;;;10.12;47.20
71915;BME280;60387;49.994;14.660;2022-12-29T03:14:55;97351.91;;;10.20;48.31
71915;BME280;60387;49.994;14.660;2022-12-29T03:17:44;97350.66;;;10.26;47.67
71915;BME280;60387;49.994;14.660;2022-12-29T03:20:24;97350.34;;;10.27;47.60
71915;BME280;60387;49.994;14.660;2022-12-29T03:23:00;97357.69;;;10.27;47.59
71915;BME280;60387;49.994;14.660;2022-12-29T03:25:38;97347.66;;;10.27;47.46
71915;BME280;60387;49.994;14.660;2022-12-29T03:28:18;97346.53;;;10.28;47.53
71915;BME280;60387;49.994;14.660;2022-12-29T03:30:55;97338.41;;;10.28;47.47
71915;BME280;60387;49.994;14.660;2022-12-29T03:33:31;97348.13;;;10.29;47.42
71915;BME280;60387;49.994;14.660;2022-12-29T03:36:10;97348.13;;;10.29;47.39
71915;BME280;60387;49.994;14.660;2022-12-29T03:38:53;97337.63;;;10.28;48.32
71915;BME280;60387;49.994;14.660;2022-12-29T03:41:31;97340.00;;;10.29;47.56
71915;BME280;60387;49.994;14.660;2022-12-29T03:44:06;97353.88;;;10.28;47.35
71915;BME280;60387;49.994;14.660;2022-12-29T03:46:40;97350.53;;;10.31;47.64
71915;BME280;60387;49.994;14.660;2022-12-29T03:49:13;97354.53;;;10.33;47.30
71915;BME280;60387;49.994;14.660;2022-12-29T03:51:46;97353.63;;;10.38;47.04
71915;BME280;60387;49.994;14.660;2022-12-29T03:54:20;97360.63;;;10.39;47.23
71915;BME280;60387;49.994;14.660;2022-12-29T03:56:53;97354.78;;;10.45;47.60
71915;BME280;60387;49.994;14.660;2022-12-29T03:59:26;97345.22;;;10.48;47.48
71915;BME280;60387;49.994;14.660;2022-12-29T04:02:00;97347.81;;;10.53;46.95
71915;BME280;60387;49.994;14.660;2022-12-29T04:04:33;97346.56;;;10.59;46.95
71915;BME280;60387;49.994;14.660;2022-12-29T04:07:06;97345.97;;;10.62;47.45
71915;BME280;60387;49.994;14.660;2022-12-29T04:09:40;97349.63;;;10.66;46.38
71915;BME280;60387;49.994;14.660;2022-12-29T04:12:13;97347.41;;;10.68;46.18
71915;BME280;60387;49.994;14.660;2022-12-29T04:14:46;97336.75;;;10.71;46.66
71915;BME280;60387;49.994;14.660;2022-12-29T04:17:19;97333.94;;;10.76;46.44
71915;BME280;60387;49.994;14.660;2022-12-29T04:19:53;97333.94;;;10.85;46.37
71915;BME280;60387;49.994;14.660;2022-12-29T04:22:26;97324.88;;;10.81;46.25
71915;BME280;60387;49.994;14.660;2022-12-29T04:24:59;97315.31;;;10.83;46.67
71915;BME280;60387;49.994;14.660;2022-12-29T04:27:32;97330.66;;;10.88;46.26
71915;BME280;60387;49.994;14.660;2022-12-29T04:30:06;97313.75;;;10.91;46.30
71915;BME280;60387;49.994;14.660;2022-12-29T04:32:40;97313.94;;;10.94;46.11
71915;BME280;60387;49.994;14.660;2022-12-29T04:35:13;97312.34;;;10.93;45.88
71915;BME280;60387;49.994;14.660;2022-12-29T04:37:46;97304.56;;;11.00;46.63
71915;BME280;60387;49.994;14.660;2022-12-29T04:40:20;97309.34;;;11.03;46.48
71915;BME280;60387;49.994;14.660;2022-12-29T04:42:53;97307.09;;;11.05;46.65
71915;BME280;60387;49.994;14.660;2022-12-29T04:45:26;97310.44;;;11.02;46.63
71915;BME280;60387;49.994;14.660;2022-12-29T04:47:59;97319.06;;;11.04;46.35
71915;BME280;60387;49.994;14.660;2022-12-29T04:50:33;97319.06;;;11.04;46.37
71915;BME280;60387;49.994;14.660;2022-12-29T04:53:07;97317.16;;;11.05;45.76
71915;BME280;60387;49.994;14.660;2022-12-29T04:55:40;97326.25;;;11.09;46.10
71915;BME280;60387;49.994;14.660;2022-12-29T04:58:13;97324.19;;;11.14;46.85
71915;BME280;60387;49.994;14.660;2022-12-29T05:00:47;97314.16;;;11.15;46.29
71915;BME280;60387;49.994;14.660;2022-12-29T05:03:20;97309.19;;;11.08;45.81
71915;BME280;60387;49.994;14.660;2022-12-29T05:05:54;97321.19;;;11.16;46.39
71915;BME280;60387;49.994;14.660;2022-12-29T05:08:28;97319.09;;;11.13;46.30
71915;BME280;60387;49.994;14.660;2022-12-29T05:11:01;97317.34;;;11.17;46.12
71915;BME280;60387;49.994;14.660;2022-12-29T05:13:34;97313.84;;;11.16;46.34
71915;BME280;60387;49.994;14.660;2022-12-29T05:16:08;97313.03;;;11.16;45.92
71915;BME280;60387;49.994;14.660;2022-12-29T05:18:41;97311.94;;;11.17;45.73
71915;BME280;60387;49.994;14.660;2022-12-29T05:21:14;97301.09;;;11.17;45.35
71915;BME280;60387;49.994;14.660;2022-12-29T05:23:48;97302.38;;;11.19;45.76
71915;BME280;60387;49.994;14.660;2022-12-29T05:26:21;97306.69;;;11.20;46.10
71915;BME280;60387;49.994;14.660;2022-12-29T05:28:54;97298.25;;;11.22;45.90
71915;BME280;60387;49.994;14.660;2022-12-29T05:31:28;97311.47;;;11.23;45.66
71915;BME280;60387;49.994;14.660;2022-12-29T05:34:01;97304.44;;;11.22;45.38
71915;BME280;60387;49.994;14.660;2022-12-29T05:36:35;97306.22;;;11.27;45.20
71915;BME280;60387;49.994;14.660;2022-12-29T05:39:08;97309.25;;;11.25;45.12
71915;BME280;60387;49.994;14.660;2022-12-29T05:41:41;97322.66;;;11.30;45.85
71915;BME280;60387;49.994;14.660;2022-12-29T05:44:14;97311.31;;;11.28;45.59
71915;BME280;60387;49.994;14.660;2022-12-29T05:46:48;97310.22;;;11.29;45.72
71915;BME280;60387;49.994;14.660;2022-12-29T05:49:21;97303.38;;;11.32;45.88
71915;BME280;60387;49.994;14.660;2022-12-29T05:51:54;97297.94;;;11.32;45.87
71915;BME280;60387;49.994;14.660;2022-12-29T05:54:28;97294.75;;;11.30;45.82
71915;BME280;60387;49.994;14.660;2022-12-29T05:57:01;97300.47;;;11.28;45.22
71915;BME280;60387;49.994;14.660;2022-12-29T05:59:34;97293.78;;;11.26;45.51
71915;BME280;60387;49.994;14.660;2022-12-29T06:02:09;97284.84;;;11.25;45.65
71915;BME280;60387;49.994;14.660;2022-12-29T06:04:42;97281.16;;;11.21;44.76
71915;BME280;60387;49.994;14.660;2022-12-29T06:07:15;97293.00;;;11.25;45.19
71915;BME280;60387;49.994;14.660;2022-12-29T06:09:48;97296.97;;;11.28;45.72
71915;BME280;60387;49.994;14.660;2022-12-29T06:12:22;97290.94;;;11.31;44.57
71915;BME280;60387;49.994;14.660;2022-12-29T06:14:55;97289.16;;;11.35;44.58
71915;BME280;60387;49.994;14.660;2022-12-29T06:17:28;97279.28;;;11.39;44.99
71915;BME280;60387;49.994;14.660;2022-12-29T06:20:02;97284.88;;;11.42;44.96
71915;BME280;60387;49.994;14.660;2022-12-29T06:22:36;97290.78;;;11.44;44.11
71915;BME280;60387;49.994;14.660;2022-12-29T06:25:09;97281.22;;;11.47;44.31
71915;BME280;60387;49.994;14.660;2022-12-29T06:27:42;97291.13;;;11.51;44.06
71915;BME280;60387;49.994;14.660;2022-12-29T06:30:16;97281.06;;;11.52;43.62
71915;BME280;60387;49.994;14.660;2022-12-29T06:32:49;97293.06;;;11.59;43.70
71915;BME280;60387;49.994;14.660;2022-12-29T06:35:22;97293.38;;;11.66;44.08
71915;BME280;60387;49.994;14.660;2022-12-29T06:37:56;97293.53;;;11.70;43.67
71915;BME280;60387;49.994;14.660;2022-12-29T06:40:29;97288.44;;;11.77;43.81
71915;BME280;60387;49.994;14.660;2022-12-29T06:43:03;97284.59;;;11.78;44.14
71915;BME280;60387;49.994;14.660;2022-12-29T06:45:38;97297.56;;;11.81;43.88
71915;BME280;60387;49.994;14.660;2022-12-29T06:48:11;97298.81;;;11.83;44.04
71915;BME280;60387;49.994;14.660;2022-12-29T06:50:45;97308.25;;;11.86;44.34
71915;BME280;60387;49.994;14.660;2022-12-29T06:53:18;97302.03;;;11.85;43.96
71915;BME280;60387;49.994;14.660;2022-12-29T06:55:51;97311.44;;;11.88;44.21
71915;BME280;60387;49.994;14.660;2022-12-29T06:58:24;97301.69;;;11.87;44.44
71915;BME280;60387;49.994;14.660;2022-12-29T07:00:58;97304.41;;;11.87;43.96
71915;BME280;60387;49.994;14.660;2022-12-29T07:03:31;97310.66;;;11.87;43.59
71915;BME280;60387;49.994;14.660;2022-12-29T07:06:05;97301.69;;;11.87;43.55
71915;BME280;60387;49.994;14.660;2022-12-29T07:08:38;97305.53;;;11.86;43.46
71915;BME280;60387;49.994;14.660;2022-12-29T07:11:11;97302.19;;;11.89;44.12
71915;BME280;60387;49.994;14.660;2022-12-29T07:13:44;97305.53;;;11.86;43.81
71915;BME280;60387;49.994;14.660;2022-12-29T07:16:18;97303.78;;;11.90;43.78
71915;BME280;60387;49.994;14.660;2022-12-29T07:18:51;97309.84;;;11.87;43.96
71915;BME280;60387;49.994;14.660;2022-12-29T07:21:25;97313.53;;;11.91;43.66
71915;BME280;60387;49.994;14.660;2022-12-29T07:23:58;97318.13;;;11.90;43.92
71915;BME280;60387;49.994;14.660;2022-12-29T07:26:31;97310.81;;;11.91;44.62
71915;BME280;60387;49.994;14.660;2022-12-29T07:29:04;97323.59;;;11.99;44.36
71915;BME280;60387;49.994;14.660;2022-12-29T07:31:38;97318.63;;;12.01;44.03
71915;BME280;60387;49.994;14.660;2022-12-29T07:34:11;97322.00;;;11.98;43.85
71915;BME280;60387;49.994;14.660;2022-12-29T07:36:44;97322.00;;;11.98;44.15
71915;BME280;60387;49.994;14.660;2022-12-29T07:39:18;97319.75;;;12.00;43.62
71915;BME280;60387;49.994;14.660;2022-12-29T07:41:51;97312.88;;;12.02;44.61
71915;BME280;60387;49.994;14.660;2022-12-29T07:44:24;97321.66;;;12.08;44.24
71915;BME280;60387;49.994;14.660;2022-12-29T07:46:57;97326.13;;;12.12;44.66
71915;BME280;60387;49.994;14.660;2022-12-29T07:49:31;97293.22;;;11.97;44.37
71915;BME280;60387;49.994;14.660;2022-12-29T07:52:04;97319.75;;;12.17;44.27
71915;BME280;60387;49.994;14.660;2022-12-29T07:54:37;97322.28;;;12.22;44.21
71915;BME280;60387;49.994;14.660;2022-12-29T07:57:11;97316.53;;;12.23;44.29
71915;BME280;60387;49.994;14.660;2022-12-29T07:59:44;97312.06;;;12.27;43.75
71915;BME280;60387;49.994;14.660;2022-12-29T08:02:17;97315.56;;;12.28;43.65
71915;BME280;60387;49.994;14.660;2022-12-29T08:04:50;97320.69;;;12.29;43.87
71915;BME280;60387;49.994;14.660;2022-12-29T08:07:24;97327.88;;;12.34;43.53
71915;BME280;60387;49.994;14.660;2022-12-29T08:09:57;97312.19;;;12.39;44.08
71915;BME280;60387;49.994;14.660;2022-12-29T08:12:30;97309.94;;;12.41;43.82
71915;BME280;60387;49.994;14.660;2022-12-29T08:15:04;97321.94;;;12.49;44.31
71915;BME280;60387;49.994;14.660;2022-12-29T08:17:38;97308.66;;;12.47;44.00
71915;BME280;60387;49.994;14.660;2022-12-29T08:20:11;97308.81;;;12.51;44.06
71915;BME280;60387;49.994;14.660;2022-12-29T08:22:44;97321.28;;;12.52;44.00
71915;BME280;60387;49.994;14.660;2022-12-29T08:25:18;97313.59;;;12.54;44.04
71915;BME280;60387;49.994;14.660;2022-12-29T08:27:51;97322.56;;;12.54;43.96
71915;BME280;60387;49.994;14.660;2022-12-29T08:30:24;97334.53;;;12.62;43.62
71915;BME280;60387;49.994;14.660;2022-12-29T08:32:58;97347.59;;;12.68;44.11
71915;BME280;60387;49.994;14.660;2022-12-29T08:35:31;97342.31;;;12.72;44.40
71915;BME280;60387;49.994;14.660;2022-12-29T08:38:04;97338.00;;;12.79;44.57
71915;BME280;60387;49.994;14.660;2022-12-29T08:40:37;97343.72;;;12.86;43.82
71915;BME280;60387;49.994;14.660;2022-12-29T08:43:11;97337.19;;;12.87;43.94
71915;BME280;60387;49.994;14.660;2022-12-29T08:45:44;97335.41;;;12.91;43.81
71915;BME280;60387;49.994;14.660;2022-12-29T08:48:17;97333.00;;;12.89;43.37
71915;BME280;60387;49.994;14.660;2022-12-29T08:50:51;97340.22;;;12.94;43.36
71915;BME280;60387;49.994;14.660;2022-12-29T08:53:24;97333.47;;;13.00;43.53
71915;BME280;60387;49.994;14.660;2022-12-29T08:55:59;97338.91;;;13.08;42.91
71915;BME280;60387;49.994;14.660;2022-12-29T08:58:33;97339.00;;;13.12;43.22
71915;BME280;60387;49.994;14.660;2022-12-29T09:01:06;97339.00;;;13.20;43.15
71915;BME280;60387;49.994;14.660;2022-12-29T09:03:39;97341.41;;;13.22;43.08
71915;BME280;60387;49.994;14.660;2022-12-29T09:06:14;97340.06;;;13.28;42.95
71915;BME280;60387;49.994;14.660;2022-12-29T09:08:48;97337.31;;;13.36;43.35
71915;BME280;60387;49.994;14.660;2022-12-29T09:11:23;97337.47;;;13.40;42.91
71915;BME280;60387;49.994;14.660;2022-12-29T09:13:57;97343.19;;;13.47;43.20
71915;BME280;60387;49.994;14.660;2022-12-29T09:16:30;97342.00;;;13.56;42.54
71915;BME280;60387;49.994;14.660;2022-12-29T09:19:04;97338.97;;;13.58;42.65
71915;BME280;60387;49.994;14.660;2022-12-29T09:21:38;97339.09;;;13.61;43.14
71915;BME280;60387;49.994;14.660;2022-12-29T09:24:11;97337.59;;;13.72;42.67
71915;BME280;60387;49.994;14.660;2022-12-29T09:26:44;97325.03;;;13.80;42.26
71915;BME280;60387;49.994;14.660;2022-12-29T09:29:17;97333.34;;;13.83;42.40
71915;BME280;60387;49.994;14.660;2022-12-29T09:31:51;97325.78;;;13.89;42.72
71915;BME280;60387;49.994;14.660;2022-12-29T09:34:24;97324.78;;;13.93;41.88
71915;BME280;60387;49.994;14.660;2022-12-29T09:36:57;97323.19;;;13.92;42.11
71915;BME280;60387;49.994;14.660;2022-12-29T09:39:30;97331.44;;;14.04;42.39
71915;BME280;60387;49.994;14.660;2022-12-29T09:42:14;97343.72;;;14.10;42.26
71915;BME280;60387;49.994;14.660;2022-12-29T09:47:43;97336.31;;;14.19;41.88
71915;BME280;60387;49.994;14.660;2022-12-29T09:50:28;97333.03;;;14.26;42.14
71915;BME280;60387;49.994;14.660;2022-12-29T09:53:18;97328.63;;;14.33;41.93
71915;BME280;60387;49.994;14.660;2022-12-29T09:55:55;97332.06;;;14.42;41.92
71915;BME280;60387;49.994;14.660;2022-12-29T09:58:39;97325.75;;;14.50;42.43
71915;BME280;60387;49.994;14.660;2022-12-29T10:01:26;97306.81;;;14.54;42.10
71915;BME280;60387;49.994;14.660;2022-12-29T10:04:02;97304.66;;;14.59;41.75
71915;BME280;60387;49.994;14.660;2022-12-29T10:06:46;97314.47;;;14.72;42.30
71915;BME280;60387;49.994;14.660;2022-12-29T10:12:22;97296.78;;;14.90;41.44
71915;BME280;60387;49.994;14.660;2022-12-29T10:21:29;97262.47;;;15.13;40.71
71915;BME280;60387;49.994;14.660;2022-12-29T10:24:10;97271.56;;;15.17;40.36
71915;BME280;60387;49.994;14.660;2022-12-29T10:26:46;97272.94;;;15.23;40.88
71915;BME280;60387;49.994;14.660;2022-12-29T10:29:24;97278.16;;;15.28;40.57
71915;BME280;60387;49.994;14.660;2022-12-29T10:34:42;97265.44;;;15.44;40.37
71915;BME280;60387;49.994;14.660;2022-12-29T10:39:54;97273.38;;;15.61;39.89
71915;BME280;60387;49.994;14.660;2022-12-29T10:42:42;97256.75;;;15.66;39.78
71915;BME280;60387;49.994;14.660;2022-12-29T10:45:19;97267.53;;;15.75;39.91
71915;BME280;60387;49.994;14.660;2022-12-29T10:48:03;97269.88;;;15.88;39.92
71915;BME280;60387;49.994;14.660;2022-12-29T10:50:39;97262.59;;;15.92;39.52
71915;BME280;60387;49.994;14.660;2022-12-29T10:53:25;97270.75;;;16.04;40.34
71915;BME280;60387;49.994;14.660;2022-12-29T10:56:01;97255.72;;;16.10;40.25
71915;BME280;60387;49.994;14.660;2022-12-29T10:58:35;97253.84;;;16.14;39.26
71915;BME280;60387;49.994;14.660;2022-12-29T11:01:10;97263.75;;;16.18;39.25
71915;BME280;60387;49.994;14.660;2022-12-29T11:03:50;97265.00;;;16.21;39.08
71915;BME280;60387;49.994;14.660;2022-12-29T11:06:28;97252.91;;;16.22;39.12
71915;BME280;60387;49.994;14.660;2022-12-29T11:09:27;97244.72;;;16.22;38.56
71915;BME280;60387;49.994;14.660;2022-12-29T11:12:27;97246.66;;;16.22;38.90
71915;BME280;60387;49.994;14.660;2022-12-29T11:17:48;97228.41;;;16.25;38.76
71915;BME280;60387;49.994;14.660;2022-12-29T11:20:35;97223.31;;;16.24;39.18
71915;BME280;60387;49.994;14.660;2022-12-29T11:23:41;97228.53;;;16.29;39.37
71915;BME280;60387;49.994;14.660;2022-12-29T11:26:20;97223.88;;;16.29;38.73
71915;BME280;60387;49.994;14.660;2022-12-29T11:31:54;97226.69;;;16.33;38.99
71915;BME280;60387;49.994;14.660;2022-12-29T11:34:35;97228.19;;;16.30;38.77
71915;BME280;60387;49.994;14.660;2022-12-29T11:40:03;97211.06;;;16.33;38.85
71915;BME280;60387;49.994;14.660;2022-12-29T11:43:02;97193.50;;;16.19;39.04
71915;BME280;60387;49.994;14.660;2022-12-29T11:45:35;97217.59;;;16.29;38.81
71915;BME280;60387;49.994;14.660;2022-12-29T11:48:15;97210.09;;;16.26;38.47
71915;BME280;60387;49.994;14.660;2022-12-29T11:50:53;97212.50;;;16.27;39.33
71915;BME280;60387;49.994;14.660;2022-12-29T11:53:42;97221.91;;;16.30;38.67
71915;BME280;60387;49.994;14.660;2022-12-29T11:56:19;97216.91;;;16.32;39.25
71915;BME280;60387;49.994;14.660;2022-12-29T11:58:53;97205.69;;;16.22;38.58
71915;BME280;60387;49.994;14.660;2022-12-29T12:01:35;97222.72;;;16.30;38.88
71915;BME280;60387;49.994;14.660;2022-12-29T12:04:14;97210.78;;;16.23;38.18
71915;BME280;60387;49.994;14.660;2022-12-29T12:07:13;97214.66;;;16.22;38.38
71915;BME280;60387;49.994;14.660;2022-12-29T12:09:53;97208.41;;;16.22;38.75
71915;BME280;60387;49.994;14.660;2022-12-29T12:15:17;97223.75;;;16.26;38.14
71915;BME280;60387;49.994;14.660;2022-12-29T12:20:51;97219.16;;;16.30;38.67
71915;BME280;60387;49.994;14.660;2022-12-29T12:26:53;97234.31;;;16.39;38.50
71915;BME280;60387;49.994;14.660;2022-12-29T12:29:25;97223.03;;;16.41;38.30
71915;BME280;60387;49.994;14.660;2022-12-29T12:32:14;97232.66;;;16.50;38.22
71915;BME280;60387;49.994;14.660;2022-12-29T12:34:48;97223.66;;;16.50;38.54
71915;BME280;60387;49.994;14.660;2022-12-29T12:43:44;97218.63;;;16.52;38.21
71915;BME280;60387;49.994;14.660;2022-12-29T12:46:42;97224.44;;;16.50;38.84
71915;BME280;60387;49.994;14.660;2022-12-29T13:06:54;97209.91;;;16.46;39.65
71915;BME280;60387;49.994;14.660;2022-12-29T13:15:06;97191.50;;;16.31;39.33
71915;BME280;60387;49.994;14.660;2022-12-29T13:23:57;97204.81;;;16.33;39.55
71915;BME280;60387;49.994;14.660;2022-12-29T13:26:48;97201.19;;;16.29;39.54
71915;BME280;60387;49.994;14.660;2022-12-29T13:29:33;97203.16;;;16.28;39.52
71915;BME280;60387;49.994;14.660;2022-12-29T13:32:23;97198.25;;;16.22;39.59
71915;BME280;60387;49.994;14.660;2022-12-29T13:38:00;97202.41;;;16.16;39.83
71915;BME280;60387;49.994;14.660;2022-12-29T13:40:40;97206.72;;;16.17;39.91
71915;BME280;60387;49.994;14.660;2022-12-29T13:43:15;97205.16;;;16.16;39.93
71915;BME280;60387;49.994;14.660;2022-12-29T13:45:57;97204.22;;;16.12;40.11
71915;BME280;60387;49.994;14.660;2022-12-29T13:48:56;97221.78;;;16.11;40.07
71915;BME280;60387;49.994;14.660;2022-12-29T13:51:34;97216.22;;;16.08;39.81
71915;BME280;60387;49.994;14.660;2022-12-29T13:57:19;97223.06;;;16.02;40.48
71915;BME280;60387;49.994;14.660;2022-12-29T14:00:20;97215.03;;;15.93;40.37
71915;BME280;60387;49.994;14.660;2022-12-29T14:03:11;97210.50;;;15.85;40.31
71915;BME280;60387;49.994;14.660;2022-12-29T14:06:15;97216.06;;;15.89;40.66
71915;BME280;60387;49.994;14.660;2022-12-29T14:08:51;97229.63;;;15.85;40.46
71915;BME280;60387;49.994;14.660;2022-12-29T14:11:40;97219.84;;;15.84;40.78
71915;BME280;60387;49.994;14.660;2022-12-29T14:14:21;97216.91;;;15.77;41.11
71915;BME280;60387;49.994;14.660;2022-12-29T14:17:09;97229.41;;;15.78;40.95
71915;BME280;60387;49.994;14.660;2022-12-29T14:19:43;97228.53;;;15.74;41.16
71915;BME280;60387;49.994;14.660;2022-12-29T14:22:26;97223.94;;;15.78;40.86
71915;BME280;60387;49.994;14.660;2022-12-29T14:25:00;97223.84;;;15.75;41.50
71915;BME280;60387;49.994;14.660;2022-12-29T14:27:44;97229.66;;;15.73;41.31
71915;BME280;60387;49.994;14.660;2022-12-29T14:30:50;97235.69;;;15.67;42.02
71915;BME280;60387;49.994;14.660;2022-12-29T14:33:26;97240.00;;;15.68;42.04
71915;BME280;60387;49.994;14.660;2022-12-29T14:36:20;97229.78;;;15.65;42.37
71915;BME280;60387;49.994;14.660;2022-12-29T14:38:53;97230.13;;;15.63;41.90
71915;BME280;60387;49.994;14.660;2022-12-29T14:41:31;97244.16;;;15.62;41.91
71915;BME280;60387;49.994;14.660;2022-12-29T14:44:19;97241.63;;;15.57;41.84
71915;BME280;60387;49.994;14.660;2022-12-29T14:49:29;97247.09;;;15.57;42.37
71915;BME280;60387;49.994;14.660;2022-12-29T14:52:07;97229.13;;;15.56;42.43
71915;BME280;60387;49.994;14.660;2022-12-29T14:54:53;97226.28;;;15.52;42.15
71915;BME280;60387;49.994;14.660;2022-12-29T14:57:35;97242.56;;;15.49;42.08
71915;BME280;60387;49.994;14.660;2022-12-29T15:03:06;97230.09;;;15.36;42.50
71915;BME280;60387;49.994;14.660;2022-12-29T15:05:44;97240.91;;;15.32;42.24
71915;BME280;60387;49.994;14.660;2022-12-29T15:08:27;97224.59;;;15.24;42.65
71915;BME280;60387;49.994;14.660;2022-12-29T15:11:15;97231.44;;;15.18;42.75
71915;BME280;60387;49.994;14.660;2022-12-29T15:13:50;97234.72;;;15.11;42.48
71915;BME280;60387;49.994;14.660;2022-12-29T15:16:34;97239.63;;;15.06;42.88
71915;BME280;60387;49.994;14.660;2022-12-29T15:19:21;97260.19;;;15.03;43.06
71915;BME280;60387;49.994;14.660;2022-12-29T15:21:55;97255.41;;;15.00;43.07
71915;BME280;60387;49.994;14.660;2022-12-29T15:24:29;97263.94;;;14.99;43.04
71915;BME280;60387;49.994;14.660;2022-12-29T15:27:03;97267.03;;;14.97;43.18
71915;BME280;60387;49.994;14.660;2022-12-29T15:29:39;97270.88;;;14.96;43.49
71915;BME280;60387;49.994;14.660;2022-12-29T15:32:18;97259.84;;;14.93;43.47
71915;BME280;60387;49.994;14.660;2022-12-29T15:34:54;97270.41;;;14.94;43.48
71915;BME280;60387;49.994;14.660;2022-12-29T15:37:33;97269.97;;;14.92;43.66
71915;BME280;60387;49.994;14.660;2022-12-29T15:40:25;97260.19;;;14.91;43.63